sensor_id;sensor_type;location;lat;lon;timestamp;P1;durP1;ratioP1;P2;durP2;ratioP2
73239;SDS011;61452;40.054;4.110;2022-09-09T00:06:42;1.00;;;0.70;;
73239;SDS011;61452;40.054;4.110;2022-09-09T00:12:04;1.23;;;0.90;;
73239;SDS011;61452;40.054;4.110;2022-09-09T00:17:15;2.10;;;1.00;;
73239;SDS011;61452;40.054;4.110;2022-09-09T00:22:27;1.45;;;0.80;;
73239;SDS011;61452;40.054;4.110;2022-09-09T00:27:54;1.30;;;0.90;;
73239;SDS011;61452;40.054;4.110;2022-09-09T00:33:08;1.00;;;0.88;;
73239;SDS011;61452;40.054;4.110;2022-09-09T00:38:16;1.10;;;0.80;;
73239;SDS011;61452;40.054;4.110;2022-09-09T00:54:39;1.45;;;0.80;;
73239;SDS011;61452;40.054;4.110;2022-09-09T01:10:44;1.10;;;1.00;;
73239;SDS011;61452;40.054;4.110;2022-09-09T01:15:53;1.15;;;0.70;;
73239;SDS011;61452;40.054;4.110;2022-09-09T01:26:45;1.20;;;0.85;;
73239;SDS011;61452;40.054;4.110;2022-09-09T01:31:58;1.55;;;0.90;;
73239;SDS011;61452;40.054;4.110;2022-09-09T01:42:09;1.67;;;0.93;;
73239;SDS011;61452;40.054;4.110;2022-09-09T01:47:14;2.63;;;1.17;;
73239;SDS011;61452;40.054;4.110;2022-09-09T01:52:37;1.85;;;0.90;;
73239;SDS011;61452;40.054;4.110;2022-09-09T01:58:01;1.15;;;0.80;;
73239;SDS011;61452;40.054;4.110;2022-09-09T02:03:28;1.65;;;0.80;;
73239;SDS011;61452;40.054;4.110;2022-09-09T02:08:43;1.73;;;0.90;;
73239;SDS011;61452;40.054;4.110;2022-09-09T02:13:51;2.20;;;0.90;;
73239;SDS011;61452;40.054;4.110;2022-09-09T02:24:14;1.52;;;0.90;;
73239;SDS011;61452;40.054;4.110;2022-09-09T02:29:29;1.73;;;0.80;;
73239;SDS011;61452;40.054;4.110;2022-09-09T02:34:35;2.30;;;0.93;;
73239;SDS011;61452;40.054;4.110;2022-09-09T02:39:42;1.80;;;0.93;;
73239;SDS011;61452;40.054;4.110;2022-09-09T02:44:48;1.58;;;0.98;;
73239;SDS011;61452;40.054;4.110;2022-09-09T02:55:37;2.45;;;0.95;;
73239;SDS011;61452;40.054;4.110;2022-09-09T03:00:53;2.33;;;0.90;;
73239;SDS011;61452;40.054;4.110;2022-09-09T03:05:55;1.42;;;0.90;;
73239;SDS011;61452;40.054;4.110;2022-09-09T03:11:00;2.08;;;1.17;;
73239;SDS011;61452;40.054;4.110;2022-09-09T03:16:06;2.58;;;1.02;;
73239;SDS011;61452;40.054;4.110;2022-09-09T03:21:15;2.00;;;1.10;;
73239;SDS011;61452;40.054;4.110;2022-09-09T03:26:18;1.65;;;1.00;;
73239;SDS011;61452;40.054;4.110;2022-09-09T03:31:21;1.48;;;0.90;;
73239;SDS011;61452;40.054;4.110;2022-09-09T03:36:25;1.67;;;0.98;;
73239;SDS011;61452;40.054;4.110;2022-09-09T03:41:29;2.42;;;0.93;;
73239;SDS011;61452;40.054;4.110;2022-09-09T03:46:33;2.58;;;0.80;;
73239;SDS011;61452;40.054;4.110;2022-09-09T03:56:39;1.80;;;0.80;;
73239;SDS011;61452;40.054;4.110;2022-09-09T04:01:46;2.72;;;1.10;;
73239;SDS011;61452;40.054;4.110;2022-09-09T04:06:49;2.63;;;1.08;;
73239;SDS011;61452;40.054;4.110;2022-09-09T04:11:52;1.20;;;0.70;;
73239;SDS011;61452;40.054;4.110;2022-09-09T04:16:55;1.75;;;1.10;;
73239;SDS011;61452;40.054;4.110;2022-09-09T04:22:00;1.95;;;1.10;;
73239;SDS011;61452;40.054;4.110;2022-09-09T04:27:02;1.75;;;1.10;;
73239;SDS011;61452;40.054;4.110;2022-09-09T04:32:07;1.85;;;1.20;;
73239;SDS011;61452;40.054;4.110;2022-09-09T04:37:10;2.25;;;1.10;;
73239;SDS011;61452;40.054;4.110;2022-09-09T04:42:13;1.42;;;0.90;;
73239;SDS011;61452;40.054;4.110;2022-09-09T04:47:16;1.58;;;0.98;;
73239;SDS011;61452;40.054;4.110;2022-09-09T04:52:19;2.17;;;1.10;;
73239;SDS011;61452;40.054;4.110;2022-09-09T04:57:23;1.48;;;0.95;;
73239;SDS011;61452;40.054;4.110;2022-09-09T05:02:26;2.55;;;1.17;;
73239;SDS011;61452;40.054;4.110;2022-09-09T05:07:32;3.25;;;1.40;;
73239;SDS011;61452;40.054;4.110;2022-09-09T05:12:34;3.83;;;1.40;;
73239;SDS011;61452;40.054;4.110;2022-09-09T05:17:36;3.20;;;1.60;;
73239;SDS011;61452;40.054;4.110;2022-09-09T05:22:38;3.03;;;1.20;;
73239;SDS011;61452;40.054;4.110;2022-09-09T05:27:40;2.45;;;1.20;;
73239;SDS011;61452;40.054;4.110;2022-09-09T05:32:42;3.47;;;1.55;;
73239;SDS011;61452;40.054;4.110;2022-09-09T05:37:46;2.60;;;1.10;;
73239;SDS011;61452;40.054;4.110;2022-09-09T05:42:48;3.20;;;1.45;;
73239;SDS011;61452;40.054;4.110;2022-09-09T05:47:51;7.55;;;1.60;;
73239;SDS011;61452;40.054;4.110;2022-09-09T05:52:56;16.33;;;4.80;;
73239;SDS011;61452;40.054;4.110;2022-09-09T05:57:59;16.75;;;5.43;;
73239;SDS011;61452;40.054;4.110;2022-09-09T06:03:01;21.77;;;6.47;;
73239;SDS011;61452;40.054;4.110;2022-09-09T06:08:04;25.50;;;8.77;;
73239;SDS011;61452;40.054;4.110;2022-09-09T06:13:06;24.13;;;9.10;;
73239;SDS011;61452;40.054;4.110;2022-09-09T06:18:09;32.70;;;9.20;;
73239;SDS011;61452;40.054;4.110;2022-09-09T06:37:06;26.33;;;9.00;;
73239;SDS011;61452;40.054;4.110;2022-09-09T06:42:13;28.98;;;9.20;;
73239;SDS011;61452;40.054;4.110;2022-09-09T06:47:17;28.05;;;8.88;;
73239;SDS011;61452;40.054;4.110;2022-09-09T06:52:20;26.45;;;8.48;;
73239;SDS011;61452;40.054;4.110;2022-09-09T06:57:24;22.58;;;8.23;;
73239;SDS011;61452;40.054;4.110;2022-09-09T07:02:52;21.00;;;7.55;;
73239;SDS011;61452;40.054;4.110;2022-09-09T07:07:55;23.35;;;8.15;;
73239;SDS011;61452;40.054;4.110;2022-09-09T07:12:57;18.73;;;6.90;;
73239;SDS011;61452;40.054;4.110;2022-09-09T07:18:01;20.60;;;7.32;;
73239;SDS011;61452;40.054;4.110;2022-09-09T07:28:06;18.35;;;7.13;;
73239;SDS011;61452;40.054;4.110;2022-09-09T07:33:09;20.48;;;7.10;;
73239;SDS011;61452;40.054;4.110;2022-09-09T07:38:11;15.20;;;6.55;;
73239;SDS011;61452;40.054;4.110;2022-09-09T07:43:13;15.57;;;6.00;;
73239;SDS011;61452;40.054;4.110;2022-09-09T07:48:19;14.07;;;5.88;;
73239;SDS011;61452;40.054;4.110;2022-09-09T07:53:21;15.35;;;6.47;;
73239;SDS011;61452;40.054;4.110;2022-09-09T07:58:25;16.45;;;6.32;;
73239;SDS011;61452;40.054;4.110;2022-09-09T08:03:27;13.40;;;6.35;;
73239;SDS011;61452;40.054;4.110;2022-09-09T08:08:30;17.48;;;5.85;;
73239;SDS011;61452;40.054;4.110;2022-09-09T08:13:33;13.68;;;5.18;;
73239;SDS011;61452;40.054;4.110;2022-09-09T08:18:36;8.82;;;5.70;;
73239;SDS011;61452;40.054;4.110;2022-09-09T08:23:40;10.57;;;5.18;;
73239;SDS011;61452;40.054;4.110;2022-09-09T08:28:44;12.57;;;4.90;;
73239;SDS011;61452;40.054;4.110;2022-09-09T08:33:47;13.15;;;4.85;;
73239;SDS011;61452;40.054;4.110;2022-09-09T08:38:55;10.35;;;4.30;;
73239;SDS011;61452;40.054;4.110;2022-09-09T09:00:17;9.38;;;3.25;;
73239;SDS011;61452;40.054;4.110;2022-09-09T09:05:26;7.35;;;3.13;;
73239;SDS011;61452;40.054;4.110;2022-09-09T09:10:46;10.65;;;3.58;;
73239;SDS011;61452;40.054;4.110;2022-09-09T09:15:58;7.70;;;3.35;;
73239;SDS011;61452;40.054;4.110;2022-09-09T09:26:13;7.32;;;3.53;;
73239;SDS011;61452;40.054;4.110;2022-09-09T09:31:16;6.35;;;3.15;;
73239;SDS011;61452;40.054;4.110;2022-09-09T09:36:23;7.68;;;3.30;;
73239;SDS011;61452;40.054;4.110;2022-09-09T09:41:39;8.30;;;3.40;;
73239;SDS011;61452;40.054;4.110;2022-09-09T09:46:46;7.35;;;3.97;;
73239;SDS011;61452;40.054;4.110;2022-09-09T09:51:49;7.40;;;3.20;;
73239;SDS011;61452;40.054;4.110;2022-09-09T09:56:54;8.32;;;3.40;;
73239;SDS011;61452;40.054;4.110;2022-09-09T10:07:24;7.45;;;3.70;;
73239;SDS011;61452;40.054;4.110;2022-09-09T10:17:54;8.10;;;3.30;;
73239;SDS011;61452;40.054;4.110;2022-09-09T10:28:49;7.93;;;3.75;;
73239;SDS011;61452;40.054;4.110;2022-09-09T10:34:10;7.10;;;3.45;;
73239;SDS011;61452;40.054;4.110;2022-09-09T10:39:39;6.65;;;3.60;;
73239;SDS011;61452;40.054;4.110;2022-09-09T10:50:19;6.88;;;3.55;;
73239;SDS011;61452;40.054;4.110;2022-09-09T10:56:04;7.07;;;3.20;;
73239;SDS011;61452;40.054;4.110;2022-09-09T11:01:12;6.72;;;3.40;;
73239;SDS011;61452;40.054;4.110;2022-09-09T11:06:19;4.70;;;2.80;;
73239;SDS011;61452;40.054;4.110;2022-09-09T11:11:27;5.18;;;2.80;;
73239;SDS011;61452;40.054;4.110;2022-09-09T11:22:04;6.40;;;2.83;;
73239;SDS011;61452;40.054;4.110;2022-09-09T11:27:22;4.60;;;3.10;;
73239;SDS011;61452;40.054;4.110;2022-09-09T11:33:34;7.93;;;3.22;;
73239;SDS011;61452;40.054;4.110;2022-09-09T11:38:29;4.03;;;2.70;;
73239;SDS011;61452;40.054;4.110;2022-09-09T11:44:09;3.75;;;2.42;;
73239;SDS011;61452;40.054;4.110;2022-09-09T11:49:26;5.50;;;3.05;;
73239;SDS011;61452;40.054;4.110;2022-09-09T11:54:48;6.28;;;2.83;;
73239;SDS011;61452;40.054;4.110;2022-09-09T11:59:51;5.25;;;2.80;;
73239;SDS011;61452;40.054;4.110;2022-09-09T12:05:10;5.07;;;3.22;;
73239;SDS011;61452;40.054;4.110;2022-09-09T12:10:23;5.13;;;3.00;;
73239;SDS011;61452;40.054;4.110;2022-09-09T12:15:31;4.90;;;2.78;;
73239;SDS011;61452;40.054;4.110;2022-09-09T12:20:34;4.57;;;2.78;;
73239;SDS011;61452;40.054;4.110;2022-09-09T12:31:06;5.28;;;2.90;;
73239;SDS011;61452;40.054;4.110;2022-09-09T12:36:24;4.50;;;2.63;;
73239;SDS011;61452;40.054;4.110;2022-09-09T12:41:31;4.30;;;2.63;;
73239;SDS011;61452;40.054;4.110;2022-09-09T12:51:42;5.72;;;2.85;;
73239;SDS011;61452;40.054;4.110;2022-09-09T12:56:45;4.78;;;2.75;;
73239;SDS011;61452;40.054;4.110;2022-09-09T13:01:58;4.15;;;2.63;;
73239;SDS011;61452;40.054;4.110;2022-09-09T13:07:07;4.75;;;3.10;;
73239;SDS011;61452;40.054;4.110;2022-09-09T13:12:15;4.45;;;2.60;;
73239;SDS011;61452;40.054;4.110;2022-09-09T13:17:24;6.75;;;2.75;;
73239;SDS011;61452;40.054;4.110;2022-09-09T13:22:37;5.28;;;3.28;;
73239;SDS011;61452;40.054;4.110;2022-09-09T13:27:50;3.63;;;2.20;;
73239;SDS011;61452;40.054;4.110;2022-09-09T13:38:18;4.97;;;2.63;;
73239;SDS011;61452;40.054;4.110;2022-09-09T13:43:21;3.53;;;2.28;;
73239;SDS011;61452;40.054;4.110;2022-09-09T13:48:25;3.53;;;2.42;;
73239;SDS011;61452;40.054;4.110;2022-09-09T13:53:27;4.68;;;3.08;;
73239;SDS011;61452;40.054;4.110;2022-09-09T13:58:30;3.05;;;2.10;;
73239;SDS011;61452;40.054;4.110;2022-09-09T14:03:32;4.93;;;2.45;;
73239;SDS011;61452;40.054;4.110;2022-09-09T14:13:39;4.35;;;2.53;;
73239;SDS011;61452;40.054;4.110;2022-09-09T14:18:41;3.78;;;2.08;;
73239;SDS011;61452;40.054;4.110;2022-09-09T14:23:43;4.18;;;2.88;;
73239;SDS011;61452;40.054;4.110;2022-09-09T14:28:46;4.28;;;2.60;;
73239;SDS011;61452;40.054;4.110;2022-09-09T14:33:56;3.08;;;2.45;;
73239;SDS011;61452;40.054;4.110;2022-09-09T14:38:58;3.45;;;2.63;;
73239;SDS011;61452;40.054;4.110;2022-09-09T14:44:00;3.58;;;2.60;;
73239;SDS011;61452;40.054;4.110;2022-09-09T14:49:02;6.80;;;2.13;;
73239;SDS011;61452;40.054;4.110;2022-09-09T14:54:05;5.15;;;2.40;;
73239;SDS011;61452;40.054;4.110;2022-09-09T14:59:07;4.15;;;2.42;;
73239;SDS011;61452;40.054;4.110;2022-09-09T15:04:10;2.95;;;2.20;;
73239;SDS011;61452;40.054;4.110;2022-09-09T15:09:14;7.15;;;2.40;;
73239;SDS011;61452;40.054;4.110;2022-09-09T15:14:17;3.63;;;2.22;;
73239;SDS011;61452;40.054;4.110;2022-09-09T15:19:25;4.60;;;2.60;;
73239;SDS011;61452;40.054;4.110;2022-09-09T15:24:27;4.53;;;2.30;;
73239;SDS011;61452;40.054;4.110;2022-09-09T15:29:30;5.18;;;2.60;;
73239;SDS011;61452;40.054;4.110;2022-09-09T15:34:32;5.13;;;2.90;;
73239;SDS011;61452;40.054;4.110;2022-09-09T15:39:34;6.07;;;2.38;;
73239;SDS011;61452;40.054;4.110;2022-09-09T15:44:42;3.55;;;2.15;;
73239;SDS011;61452;40.054;4.110;2022-09-09T15:49:45;5.63;;;2.33;;
73239;SDS011;61452;40.054;4.110;2022-09-09T15:54:47;4.05;;;1.90;;
73239;SDS011;61452;40.054;4.110;2022-09-09T15:59:49;9.27;;;2.50;;
73239;SDS011;61452;40.054;4.110;2022-09-09T16:04:51;6.22;;;2.25;;
73239;SDS011;61452;40.054;4.110;2022-09-09T16:09:53;3.97;;;2.53;;
73239;SDS011;61452;40.054;4.110;2022-09-09T16:14:56;3.92;;;2.10;;
73239;SDS011;61452;40.054;4.110;2022-09-09T16:19:58;3.15;;;1.92;;
73239;SDS011;61452;40.054;4.110;2022-09-09T16:25:00;6.10;;;2.20;;
73239;SDS011;61452;40.054;4.110;2022-09-09T16:30:02;4.78;;;2.13;;
73239;SDS011;61452;40.054;4.110;2022-09-09T16:35:05;4.93;;;2.40;;
73239;SDS011;61452;40.054;4.110;2022-09-09T16:40:07;4.18;;;2.20;;
73239;SDS011;61452;40.054;4.110;2022-09-09T16:45:10;6.57;;;2.40;;
73239;SDS011;61452;40.054;4.110;2022-09-09T16:50:14;5.05;;;1.83;;
73239;SDS011;61452;40.054;4.110;2022-09-09T16:55:16;3.28;;;1.67;;
73239;SDS011;61452;40.054;4.110;2022-09-09T17:00:19;4.72;;;1.70;;
73239;SDS011;61452;40.054;4.110;2022-09-09T17:05:21;5.63;;;2.20;;
73239;SDS011;61452;40.054;4.110;2022-09-09T17:10:24;7.55;;;2.50;;
73239;SDS011;61452;40.054;4.110;2022-09-09T17:20:29;9.32;;;3.40;;
73239;SDS011;61452;40.054;4.110;2022-09-09T17:25:55;6.65;;;3.45;;
73239;SDS011;61452;40.054;4.110;2022-09-09T17:30:58;42.72;;;11.02;;
73239;SDS011;61452;40.054;4.110;2022-09-09T17:36:07;18.38;;;6.32;;
73239;SDS011;61452;40.054;4.110;2022-09-09T17:41:14;9.93;;;3.38;;
73239;SDS011;61452;40.054;4.110;2022-09-09T17:46:22;11.63;;;3.90;;
73239;SDS011;61452;40.054;4.110;2022-09-09T17:51:27;12.00;;;3.78;;
73239;SDS011;61452;40.054;4.110;2022-09-09T17:56:34;8.02;;;3.40;;
73239;SDS011;61452;40.054;4.110;2022-09-09T18:01:38;8.65;;;3.25;;
73239;SDS011;61452;40.054;4.110;2022-09-09T18:06:48;8.38;;;3.28;;
73239;SDS011;61452;40.054;4.110;2022-09-09T18:11:53;5.70;;;2.72;;
73239;SDS011;61452;40.054;4.110;2022-09-09T18:16:57;6.07;;;2.97;;
73239;SDS011;61452;40.054;4.110;2022-09-09T18:22:02;7.45;;;3.05;;
73239;SDS011;61452;40.054;4.110;2022-09-09T18:27:05;6.50;;;2.72;;
73239;SDS011;61452;40.054;4.110;2022-09-09T18:32:08;4.63;;;2.70;;
73239;SDS011;61452;40.054;4.110;2022-09-09T18:37:10;5.60;;;2.88;;
73239;SDS011;61452;40.054;4.110;2022-09-09T18:42:12;4.05;;;2.75;;
73239;SDS011;61452;40.054;4.110;2022-09-09T18:47:15;6.22;;;2.55;;
73239;SDS011;61452;40.054;4.110;2022-09-09T18:52:18;5.45;;;2.63;;
73239;SDS011;61452;40.054;4.110;2022-09-09T18:57:20;4.72;;;2.35;;
73239;SDS011;61452;40.054;4.110;2022-09-09T19:02:22;4.57;;;2.47;;
73239;SDS011;61452;40.054;4.110;2022-09-09T19:07:24;3.78;;;2.38;;
73239;SDS011;61452;40.054;4.110;2022-09-09T19:12:26;3.95;;;2.13;;
73239;SDS011;61452;40.054;4.110;2022-09-09T19:17:28;4.90;;;2.47;;
73239;SDS011;61452;40.054;4.110;2022-09-09T19:22:32;4.38;;;2.20;;
73239;SDS011;61452;40.054;4.110;2022-09-09T19:27:35;3.75;;;2.70;;
73239;SDS011;61452;40.054;4.110;2022-09-09T19:32:38;4.03;;;2.40;;
73239;SDS011;61452;40.054;4.110;2022-09-09T19:37:54;3.08;;;2.30;;
73239;SDS011;61452;40.054;4.110;2022-09-09T19:42:59;6.38;;;2.50;;
73239;SDS011;61452;40.054;4.110;2022-09-09T19:48:01;3.67;;;2.30;;
73239;SDS011;61452;40.054;4.110;2022-09-09T19:53:04;2.67;;;2.28;;
73239;SDS011;61452;40.054;4.110;2022-09-09T19:58:06;3.60;;;2.40;;
73239;SDS011;61452;40.054;4.110;2022-09-09T20:03:08;3.60;;;2.20;;
73239;SDS011;61452;40.054;4.110;2022-09-09T20:08:19;3.30;;;2.20;;
73239;SDS011;61452;40.054;4.110;2022-09-09T20:13:21;4.93;;;2.00;;
73239;SDS011;61452;40.054;4.110;2022-09-09T20:18:25;3.35;;;2.13;;
73239;SDS011;61452;40.054;4.110;2022-09-09T20:23:28;9.80;;;2.65;;
73239;SDS011;61452;40.054;4.110;2022-09-09T20:28:34;6.80;;;2.00;;
73239;SDS011;61452;40.054;4.110;2022-09-09T20:33:39;6.55;;;2.40;;
73239;SDS011;61452;40.054;4.110;2022-09-09T20:43:50;4.32;;;2.38;;
73239;SDS011;61452;40.054;4.110;2022-09-09T20:48:53;4.25;;;2.03;;
73239;SDS011;61452;40.054;4.110;2022-09-09T20:54:04;4.43;;;2.03;;
73239;SDS011;61452;40.054;4.110;2022-09-09T20:59:16;4.30;;;1.80;;
73239;SDS011;61452;40.054;4.110;2022-09-09T21:04:20;7.07;;;2.50;;
73239;SDS011;61452;40.054;4.110;2022-09-09T21:09:22;3.05;;;2.20;;
73239;SDS011;61452;40.054;4.110;2022-09-09T21:14:25;3.95;;;1.90;;
73239;SDS011;61452;40.054;4.110;2022-09-09T21:19:28;4.15;;;1.98;;
73239;SDS011;61452;40.054;4.110;2022-09-09T21:24:30;3.85;;;2.30;;
73239;SDS011;61452;40.054;4.110;2022-09-09T21:29:32;4.68;;;2.00;;
73239;SDS011;61452;40.054;4.110;2022-09-09T21:34:34;3.13;;;2.10;;
73239;SDS011;61452;40.054;4.110;2022-09-09T21:39:36;3.38;;;1.90;;
73239;SDS011;61452;40.054;4.110;2022-09-09T21:44:38;3.42;;;1.88;;
73239;SDS011;61452;40.054;4.110;2022-09-09T21:49:41;2.67;;;1.80;;
73239;SDS011;61452;40.054;4.110;2022-09-09T21:54:43;3.03;;;1.90;;
73239;SDS011;61452;40.054;4.110;2022-09-09T21:59:45;3.50;;;1.90;;
73239;SDS011;61452;40.054;4.110;2022-09-09T22:04:48;3.15;;;1.90;;
73239;SDS011;61452;40.054;4.110;2022-09-09T22:09:52;3.85;;;2.05;;
73239;SDS011;61452;40.054;4.110;2022-09-09T22:14:54;4.28;;;2.15;;
73239;SDS011;61452;40.054;4.110;2022-09-09T22:19:57;2.47;;;1.77;;
73239;SDS011;61452;40.054;4.110;2022-09-09T22:24:59;2.70;;;1.90;;
73239;SDS011;61452;40.054;4.110;2022-09-09T22:30:02;3.63;;;1.58;;
73239;SDS011;61452;40.054;4.110;2022-09-09T22:35:04;2.25;;;1.63;;
73239;SDS011;61452;40.054;4.110;2022-09-09T22:40:07;2.45;;;1.60;;
73239;SDS011;61452;40.054;4.110;2022-09-09T22:45:10;3.00;;;1.80;;
73239;SDS011;61452;40.054;4.110;2022-09-09T22:50:12;2.67;;;1.70;;
73239;SDS011;61452;40.054;4.110;2022-09-09T22:55:15;3.00;;;1.60;;
73239;SDS011;61452;40.054;4.110;2022-09-09T23:00:17;4.07;;;1.63;;
73239;SDS011;61452;40.054;4.110;2022-09-09T23:05:19;3.25;;;1.75;;
73239;SDS011;61452;40.054;4.110;2022-09-09T23:10:23;2.25;;;1.60;;
73239;SDS011;61452;40.054;4.110;2022-09-09T23:15:26;3.13;;;1.75;;
73239;SDS011;61452;40.054;4.110;2022-09-09T23:20:31;3.47;;;1.95;;
73239;SDS011;61452;40.054;4.110;2022-09-09T23:25:34;2.15;;;1.70;;
73239;SDS011;61452;40.054;4.110;2022-09-09T23:30:40;3.50;;;1.60;;
73239;SDS011;61452;40.054;4.110;2022-09-09T23:35:42;5.35;;;2.10;;
73239;SDS011;61452;40.054;4.110;2022-09-09T23:40:44;3.38;;;1.70;;
73239;SDS011;61452;40.054;4.110;2022-09-09T23:45:47;3.35;;;1.50;;
73239;SDS011;61452;40.054;4.110;2022-09-09T23:50:50;3.88;;;1.73;;
73239;SDS011;61452;40.054;4.110;2022-09-09T23:55:52;4.40;;;1.45;;
